sensor_id;sensor_type;location;lat;lon;timestamp;P1;durP1;ratioP1;P2;durP2;ratioP2
69053;SDS011;56125;52.242;4.756;2022-12-29T00:01:12;1.00;;;0.80;;
69053;SDS011;56125;52.242;4.756;2022-12-29T00:06:13;1.20;;;1.00;;
69053;SDS011;56125;52.242;4.756;2022-12-29T00:11:16;1.13;;;0.80;;
69053;SDS011;56125;52.242;4.756;2022-12-29T00:16:20;0.95;;;0.73;;
69053;SDS011;56125;52.242;4.756;2022-12-29T00:21:22;1.30;;;0.90;;
69053;SDS011;56125;52.242;4.756;2022-12-29T00:26:42;1.05;;;0.80;;
69053;SDS011;56125;52.242;4.756;2022-12-29T00:32:02;0.80;;;0.70;;
69053;SDS011;56125;52.242;4.756;2022-12-29T00:37:23;0.80;;;0.70;;
69053;SDS011;56125;52.242;4.756;2022-12-29T00:42:44;2.13;;;0.77;;
69053;SDS011;56125;52.242;4.756;2022-12-29T00:48:03;1.23;;;0.80;;
69053;SDS011;56125;52.242;4.756;2022-12-29T00:53:04;1.00;;;0.90;;
69053;SDS011;56125;52.242;4.756;2022-12-29T00:58:05;0.98;;;0.80;;
69053;SDS011;56125;52.242;4.756;2022-12-29T01:03:06;1.30;;;1.00;;
69053;SDS011;56125;52.242;4.756;2022-12-29T01:08:07;1.05;;;0.70;;
69053;SDS011;56125;52.242;4.756;2022-12-29T01:13:08;0.80;;;0.70;;
69053;SDS011;56125;52.242;4.756;2022-12-29T01:18:09;0.90;;;0.80;;
69053;SDS011;56125;52.242;4.756;2022-12-29T01:23:10;0.90;;;0.67;;
69053;SDS011;56125;52.242;4.756;2022-12-29T01:28:12;1.08;;;0.75;;
69053;SDS011;56125;52.242;4.756;2022-12-29T01:33:13;1.00;;;0.80;;
69053;SDS011;56125;52.242;4.756;2022-12-29T01:38:14;0.95;;;0.88;;
69053;SDS011;56125;52.242;4.756;2022-12-29T01:43:15;0.97;;;0.60;;
69053;SDS011;56125;52.242;4.756;2022-12-29T01:48:16;0.75;;;0.75;;
69053;SDS011;56125;52.242;4.756;2022-12-29T01:53:24;0.83;;;0.57;;
69053;SDS011;56125;52.242;4.756;2022-12-29T01:58:30;1.13;;;0.88;;
69053;SDS011;56125;52.242;4.756;2022-12-29T02:03:36;0.73;;;0.70;;
69053;SDS011;56125;52.242;4.756;2022-12-29T02:08:38;0.75;;;0.65;;
69053;SDS011;56125;52.242;4.756;2022-12-29T02:13:40;1.23;;;0.77;;
69053;SDS011;56125;52.242;4.756;2022-12-29T02:34:47;0.90;;;0.70;;
69053;SDS011;56125;52.242;4.756;2022-12-29T02:51:03;2.15;;;0.75;;
69053;SDS011;56125;52.242;4.756;2022-12-29T02:56:09;0.90;;;0.60;;
69053;SDS011;56125;52.242;4.756;2022-12-29T03:06:30;0.83;;;0.70;;
69053;SDS011;56125;52.242;4.756;2022-12-29T03:12:56;0.90;;;0.75;;
69053;SDS011;56125;52.242;4.756;2022-12-29T03:22:51;1.15;;;0.80;;
69053;SDS011;56125;52.242;4.756;2022-12-29T03:28:01;2.10;;;0.70;;
69053;SDS011;56125;52.242;4.756;2022-12-29T03:33:29;1.05;;;0.65;;
69053;SDS011;56125;52.242;4.756;2022-12-29T03:38:40;1.20;;;0.60;;
69053;SDS011;56125;52.242;4.756;2022-12-29T03:44:02;2.92;;;1.15;;
69053;SDS011;56125;52.242;4.756;2022-12-29T03:49:03;1.67;;;0.70;;
69053;SDS011;56125;52.242;4.756;2022-12-29T03:54:04;1.88;;;0.75;;
69053;SDS011;56125;52.242;4.756;2022-12-29T03:59:05;2.27;;;0.80;;
69053;SDS011;56125;52.242;4.756;2022-12-29T04:04:06;4.70;;;0.95;;
69053;SDS011;56125;52.242;4.756;2022-12-29T04:09:07;2.50;;;0.80;;
69053;SDS011;56125;52.242;4.756;2022-12-29T04:14:10;2.50;;;0.80;;
69053;SDS011;56125;52.242;4.756;2022-12-29T04:19:12;2.33;;;0.60;;
69053;SDS011;56125;52.242;4.756;2022-12-29T04:24:13;3.40;;;1.00;;
69053;SDS011;56125;52.242;4.756;2022-12-29T04:29:14;2.27;;;0.80;;
69053;SDS011;56125;52.242;4.756;2022-12-29T04:34:15;2.15;;;0.90;;
69053;SDS011;56125;52.242;4.756;2022-12-29T04:39:16;4.10;;;0.90;;
69053;SDS011;56125;52.242;4.756;2022-12-29T04:44:17;3.85;;;0.98;;
69053;SDS011;56125;52.242;4.756;2022-12-29T04:49:18;2.13;;;0.93;;
69053;SDS011;56125;52.242;4.756;2022-12-29T04:54:19;2.50;;;0.80;;
69053;SDS011;56125;52.242;4.756;2022-12-29T04:59:20;4.53;;;1.10;;
69053;SDS011;56125;52.242;4.756;2022-12-29T05:04:21;3.63;;;0.90;;
69053;SDS011;56125;52.242;4.756;2022-12-29T05:09:22;4.60;;;0.80;;
69053;SDS011;56125;52.242;4.756;2022-12-29T05:14:24;3.88;;;1.02;;
69053;SDS011;56125;52.242;4.756;2022-12-29T05:19:25;3.10;;;0.80;;
69053;SDS011;56125;52.242;4.756;2022-12-29T05:24:26;2.03;;;1.05;;
69053;SDS011;56125;52.242;4.756;2022-12-29T05:29:27;3.03;;;0.70;;
69053;SDS011;56125;52.242;4.756;2022-12-29T05:34:28;4.70;;;1.05;;
69053;SDS011;56125;52.242;4.756;2022-12-29T05:39:29;3.60;;;0.70;;
69053;SDS011;56125;52.242;4.756;2022-12-29T05:44:30;5.03;;;1.00;;
69053;SDS011;56125;52.242;4.756;2022-12-29T05:49:31;5.20;;;0.90;;
69053;SDS011;56125;52.242;4.756;2022-12-29T05:54:32;1.85;;;0.80;;
69053;SDS011;56125;52.242;4.756;2022-12-29T05:59:33;5.70;;;1.00;;
69053;SDS011;56125;52.242;4.756;2022-12-29T06:04:34;3.20;;;1.10;;
69053;SDS011;56125;52.242;4.756;2022-12-29T06:09:35;2.67;;;0.80;;
69053;SDS011;56125;52.242;4.756;2022-12-29T06:14:36;4.40;;;1.00;;
69053;SDS011;56125;52.242;4.756;2022-12-29T06:19:37;2.23;;;0.80;;
69053;SDS011;56125;52.242;4.756;2022-12-29T06:24:38;5.75;;;0.93;;
69053;SDS011;56125;52.242;4.756;2022-12-29T06:29:39;3.37;;;0.93;;
69053;SDS011;56125;52.242;4.756;2022-12-29T06:34:41;5.45;;;1.00;;
69053;SDS011;56125;52.242;4.756;2022-12-29T06:39:42;2.30;;;0.80;;
69053;SDS011;56125;52.242;4.756;2022-12-29T06:44:43;3.75;;;0.98;;
69053;SDS011;56125;52.242;4.756;2022-12-29T06:49:45;3.10;;;1.13;;
69053;SDS011;56125;52.242;4.756;2022-12-29T06:54:46;3.00;;;0.80;;
69053;SDS011;56125;52.242;4.756;2022-12-29T06:59:47;4.13;;;1.43;;
69053;SDS011;56125;52.242;4.756;2022-12-29T07:04:48;4.65;;;0.80;;
69053;SDS011;56125;52.242;4.756;2022-12-29T07:09:49;6.20;;;1.60;;
69053;SDS011;56125;52.242;4.756;2022-12-29T07:14:50;3.45;;;1.33;;
69053;SDS011;56125;52.242;4.756;2022-12-29T07:19:51;4.23;;;1.00;;
69053;SDS011;56125;52.242;4.756;2022-12-29T07:24:52;4.28;;;0.93;;
69053;SDS011;56125;52.242;4.756;2022-12-29T07:29:53;2.50;;;0.80;;
69053;SDS011;56125;52.242;4.756;2022-12-29T07:34:54;3.63;;;1.08;;
69053;SDS011;56125;52.242;4.756;2022-12-29T07:39:55;5.10;;;1.00;;
69053;SDS011;56125;52.242;4.756;2022-12-29T07:44:56;7.57;;;1.33;;
69053;SDS011;56125;52.242;4.756;2022-12-29T07:49:57;6.57;;;1.17;;
69053;SDS011;56125;52.242;4.756;2022-12-29T07:54:58;3.95;;;1.13;;
69053;SDS011;56125;52.242;4.756;2022-12-29T07:59:59;4.23;;;1.07;;
69053;SDS011;56125;52.242;4.756;2022-12-29T08:05:00;4.55;;;1.40;;
69053;SDS011;56125;52.242;4.756;2022-12-29T08:10:01;4.10;;;1.10;;
69053;SDS011;56125;52.242;4.756;2022-12-29T08:15:02;4.78;;;1.42;;
69053;SDS011;56125;52.242;4.756;2022-12-29T08:20:04;5.40;;;1.53;;
69053;SDS011;56125;52.242;4.756;2022-12-29T08:25:05;5.40;;;1.20;;
69053;SDS011;56125;52.242;4.756;2022-12-29T08:30:11;5.40;;;1.47;;
69053;SDS011;56125;52.242;4.756;2022-12-29T08:35:12;8.82;;;1.67;;
69053;SDS011;56125;52.242;4.756;2022-12-29T08:40:13;5.40;;;1.40;;
69053;SDS011;56125;52.242;4.756;2022-12-29T08:45:14;9.38;;;2.30;;
69053;SDS011;56125;52.242;4.756;2022-12-29T08:50:15;4.27;;;1.30;;
69053;SDS011;56125;52.242;4.756;2022-12-29T08:55:16;7.10;;;1.55;;
69053;SDS011;56125;52.242;4.756;2022-12-29T09:00:17;9.30;;;1.70;;
69053;SDS011;56125;52.242;4.756;2022-12-29T09:05:19;4.05;;;1.67;;
69053;SDS011;56125;52.242;4.756;2022-12-29T09:10:20;3.47;;;1.30;;
69053;SDS011;56125;52.242;4.756;2022-12-29T09:15:21;5.63;;;1.30;;
69053;SDS011;56125;52.242;4.756;2022-12-29T09:20:22;8.70;;;1.47;;
69053;SDS011;56125;52.242;4.756;2022-12-29T09:25:23;4.70;;;1.65;;
69053;SDS011;56125;52.242;4.756;2022-12-29T09:30:24;3.90;;;1.00;;
69053;SDS011;56125;52.242;4.756;2022-12-29T09:35:25;5.30;;;1.40;;
69053;SDS011;56125;52.242;4.756;2022-12-29T09:40:27;3.93;;;1.10;;
69053;SDS011;56125;52.242;4.756;2022-12-29T09:45:36;4.38;;;1.48;;
69053;SDS011;56125;52.242;4.756;2022-12-29T09:50:47;2.93;;;1.20;;
69053;SDS011;56125;52.242;4.756;2022-12-29T09:55:53;3.20;;;1.38;;
69053;SDS011;56125;52.242;4.756;2022-12-29T10:00:59;4.87;;;1.10;;
69053;SDS011;56125;52.242;4.756;2022-12-29T10:06:10;3.08;;;1.02;;
69053;SDS011;56125;52.242;4.756;2022-12-29T10:27:03;5.45;;;1.35;;
69053;SDS011;56125;52.242;4.756;2022-12-29T10:37:27;5.53;;;1.50;;
69053;SDS011;56125;52.242;4.756;2022-12-29T10:42:55;4.40;;;1.87;;
69053;SDS011;56125;52.242;4.756;2022-12-29T10:48:05;6.97;;;1.63;;
69053;SDS011;56125;52.242;4.756;2022-12-29T10:53:22;6.30;;;1.63;;
69053;SDS011;56125;52.242;4.756;2022-12-29T10:58:27;7.78;;;1.52;;
69053;SDS011;56125;52.242;4.756;2022-12-29T11:08:46;10.35;;;1.85;;
69053;SDS011;56125;52.242;4.756;2022-12-29T11:13:58;4.83;;;1.30;;
69053;SDS011;56125;52.242;4.756;2022-12-29T11:19:03;4.60;;;1.30;;
69053;SDS011;56125;52.242;4.756;2022-12-29T11:24:05;5.43;;;1.40;;
69053;SDS011;56125;52.242;4.756;2022-12-29T11:29:26;5.65;;;1.50;;
69053;SDS011;56125;52.242;4.756;2022-12-29T11:34:32;4.47;;;1.30;;
69053;SDS011;56125;52.242;4.756;2022-12-29T11:39:39;5.68;;;1.33;;
69053;SDS011;56125;52.242;4.756;2022-12-29T11:44:49;3.97;;;1.30;;
69053;SDS011;56125;52.242;4.756;2022-12-29T11:49:53;5.78;;;1.20;;
69053;SDS011;56125;52.242;4.756;2022-12-29T11:55:01;3.43;;;1.17;;
69053;SDS011;56125;52.242;4.756;2022-12-29T12:00:17;4.55;;;1.40;;
69053;SDS011;56125;52.242;4.756;2022-12-29T12:05:22;4.20;;;1.20;;
69053;SDS011;56125;52.242;4.756;2022-12-29T12:10:50;5.88;;;1.38;;
69053;SDS011;56125;52.242;4.756;2022-12-29T12:16:15;4.30;;;1.20;;
69053;SDS011;56125;52.242;4.756;2022-12-29T12:21:23;6.43;;;1.35;;
69053;SDS011;56125;52.242;4.756;2022-12-29T12:26:39;5.37;;;1.00;;
69053;SDS011;56125;52.242;4.756;2022-12-29T12:31:54;4.70;;;1.30;;
69053;SDS011;56125;52.242;4.756;2022-12-29T12:42:28;5.05;;;1.45;;
69053;SDS011;56125;52.242;4.756;2022-12-29T12:47:42;4.70;;;1.20;;
69053;SDS011;56125;52.242;4.756;2022-12-29T12:53:09;3.22;;;1.17;;
69053;SDS011;56125;52.242;4.756;2022-12-29T13:04:24;3.63;;;1.30;;
69053;SDS011;56125;52.242;4.756;2022-12-29T13:14:54;6.60;;;0.98;;
69053;SDS011;56125;52.242;4.756;2022-12-29T13:20:07;5.13;;;1.10;;
69053;SDS011;56125;52.242;4.756;2022-12-29T13:25:30;3.17;;;1.00;;
69053;SDS011;56125;52.242;4.756;2022-12-29T13:35:57;4.28;;;1.00;;
69053;SDS011;56125;52.242;4.756;2022-12-29T13:41:14;2.53;;;0.93;;
69053;SDS011;56125;52.242;4.756;2022-12-29T13:46:47;4.90;;;1.00;;
69053;SDS011;56125;52.242;4.756;2022-12-29T13:51:58;4.60;;;1.00;;
69053;SDS011;56125;52.242;4.756;2022-12-29T14:07:58;3.05;;;0.90;;
69053;SDS011;56125;52.242;4.756;2022-12-29T14:13:23;3.57;;;1.20;;
69053;SDS011;56125;52.242;4.756;2022-12-29T14:18:27;4.65;;;1.05;;
69053;SDS011;56125;52.242;4.756;2022-12-29T14:23:40;5.83;;;1.30;;
69053;SDS011;56125;52.242;4.756;2022-12-29T14:28:46;2.85;;;1.35;;
69053;SDS011;56125;52.242;4.756;2022-12-29T14:44:48;3.20;;;1.30;;
69053;SDS011;56125;52.242;4.756;2022-12-29T14:49:50;5.22;;;1.05;;
69053;SDS011;56125;52.242;4.756;2022-12-29T14:54:53;5.20;;;1.20;;
69053;SDS011;56125;52.242;4.756;2022-12-29T15:00:24;5.47;;;1.55;;
69053;SDS011;56125;52.242;4.756;2022-12-29T15:05:37;3.40;;;0.70;;
69053;SDS011;56125;52.242;4.756;2022-12-29T15:10:48;4.07;;;1.52;;
69053;SDS011;56125;52.242;4.756;2022-12-29T15:15:57;4.27;;;1.03;;
69053;SDS011;56125;52.242;4.756;2022-12-29T15:21:00;2.25;;;0.93;;
69053;SDS011;56125;52.242;4.756;2022-12-29T15:26:03;4.33;;;1.00;;
69053;SDS011;56125;52.242;4.756;2022-12-29T15:41:25;3.08;;;1.20;;
69053;SDS011;56125;52.242;4.756;2022-12-29T15:47:06;3.97;;;1.37;;
69053;SDS011;56125;52.242;4.756;2022-12-29T15:52:17;3.55;;;1.20;;
69053;SDS011;56125;52.242;4.756;2022-12-29T15:57:21;3.37;;;1.17;;
69053;SDS011;56125;52.242;4.756;2022-12-29T16:02:24;4.50;;;1.30;;
69053;SDS011;56125;52.242;4.756;2022-12-29T16:07:30;5.03;;;1.20;;
69053;SDS011;56125;52.242;4.756;2022-12-29T16:12:34;6.75;;;1.60;;
69053;SDS011;56125;52.242;4.756;2022-12-29T16:17:41;4.50;;;1.20;;
69053;SDS011;56125;52.242;4.756;2022-12-29T16:22:49;3.47;;;1.30;;
69053;SDS011;56125;52.242;4.756;2022-12-29T16:27:55;3.30;;;1.10;;
69053;SDS011;56125;52.242;4.756;2022-12-29T16:32:57;2.90;;;1.20;;
69053;SDS011;56125;52.242;4.756;2022-12-29T16:38:10;3.57;;;1.20;;
69053;SDS011;56125;52.242;4.756;2022-12-29T16:48:27;3.30;;;1.20;;
69053;SDS011;56125;52.242;4.756;2022-12-29T16:53:38;3.05;;;1.00;;
69053;SDS011;56125;52.242;4.756;2022-12-29T16:58:44;4.37;;;1.10;;
69053;SDS011;56125;52.242;4.756;2022-12-29T17:03:53;2.13;;;1.05;;
69053;SDS011;56125;52.242;4.756;2022-12-29T17:08:58;7.67;;;1.37;;
69053;SDS011;56125;52.242;4.756;2022-12-29T17:14:00;2.97;;;0.98;;
69053;SDS011;56125;52.242;4.756;2022-12-29T17:19:01;2.17;;;1.00;;
69053;SDS011;56125;52.242;4.756;2022-12-29T17:24:02;5.22;;;1.00;;
69053;SDS011;56125;52.242;4.756;2022-12-29T17:29:05;3.00;;;1.10;;
69053;SDS011;56125;52.242;4.756;2022-12-29T17:34:07;5.13;;;1.40;;
69053;SDS011;56125;52.242;4.756;2022-12-29T17:39:11;2.97;;;1.20;;
69053;SDS011;56125;52.242;4.756;2022-12-29T17:44:13;4.20;;;1.38;;
69053;SDS011;56125;52.242;4.756;2022-12-29T17:49:18;2.63;;;1.03;;
69053;SDS011;56125;52.242;4.756;2022-12-29T17:54:23;2.88;;;1.00;;
69053;SDS011;56125;52.242;4.756;2022-12-29T17:59:25;1.80;;;0.97;;
69053;SDS011;56125;52.242;4.756;2022-12-29T18:04:26;4.35;;;1.27;;
69053;SDS011;56125;52.242;4.756;2022-12-29T18:09:27;2.37;;;1.00;;
69053;SDS011;56125;52.242;4.756;2022-12-29T18:14:28;3.70;;;1.27;;
69053;SDS011;56125;52.242;4.756;2022-12-29T18:19:29;1.47;;;1.07;;
69053;SDS011;56125;52.242;4.756;2022-12-29T18:24:30;2.25;;;0.90;;
69053;SDS011;56125;52.242;4.756;2022-12-29T18:29:31;3.97;;;0.90;;
69053;SDS011;56125;52.242;4.756;2022-12-29T18:34:33;1.98;;;1.00;;
69053;SDS011;56125;52.242;4.756;2022-12-29T18:39:34;2.27;;;1.10;;
69053;SDS011;56125;52.242;4.756;2022-12-29T18:44:36;3.47;;;1.30;;
69053;SDS011;56125;52.242;4.756;2022-12-29T18:49:37;4.20;;;1.20;;
69053;SDS011;56125;52.242;4.756;2022-12-29T18:54:38;3.60;;;1.20;;
69053;SDS011;56125;52.242;4.756;2022-12-29T18:59:39;3.97;;;1.20;;
69053;SDS011;56125;52.242;4.756;2022-12-29T19:04:40;3.60;;;1.13;;
69053;SDS011;56125;52.242;4.756;2022-12-29T19:09:41;4.57;;;1.63;;
69053;SDS011;56125;52.242;4.756;2022-12-29T19:14:42;2.15;;;1.30;;
69053;SDS011;56125;52.242;4.756;2022-12-29T19:19:44;2.20;;;1.13;;
69053;SDS011;56125;52.242;4.756;2022-12-29T19:24:45;2.88;;;1.50;;
69053;SDS011;56125;52.242;4.756;2022-12-29T19:29:46;5.53;;;1.33;;
69053;SDS011;56125;52.242;4.756;2022-12-29T19:34:47;3.20;;;1.40;;
69053;SDS011;56125;52.242;4.756;2022-12-29T19:39:48;5.07;;;1.33;;
69053;SDS011;56125;52.242;4.756;2022-12-29T19:44:49;4.20;;;1.52;;
69053;SDS011;56125;52.242;4.756;2022-12-29T19:49:50;6.10;;;1.60;;
69053;SDS011;56125;52.242;4.756;2022-12-29T19:54:51;6.20;;;1.65;;
69053;SDS011;56125;52.242;4.756;2022-12-29T19:59:52;4.37;;;1.50;;
69053;SDS011;56125;52.242;4.756;2022-12-29T20:04:54;3.92;;;1.58;;
69053;SDS011;56125;52.242;4.756;2022-12-29T20:09:55;5.17;;;1.73;;
69053;SDS011;56125;52.242;4.756;2022-12-29T20:14:56;4.10;;;1.40;;
69053;SDS011;56125;52.242;4.756;2022-12-29T20:19:57;6.00;;;2.10;;
69053;SDS011;56125;52.242;4.756;2022-12-29T20:24:58;5.93;;;1.73;;
69053;SDS011;56125;52.242;4.756;2022-12-29T20:29:59;4.07;;;1.27;;
69053;SDS011;56125;52.242;4.756;2022-12-29T20:35:00;4.75;;;1.73;;
69053;SDS011;56125;52.242;4.756;2022-12-29T20:40:02;7.67;;;1.67;;
69053;SDS011;56125;52.242;4.756;2022-12-29T20:45:03;5.38;;;1.90;;
69053;SDS011;56125;52.242;4.756;2022-12-29T20:50:04;5.23;;;1.50;;
69053;SDS011;56125;52.242;4.756;2022-12-29T20:55:06;4.38;;;1.30;;
69053;SDS011;56125;52.242;4.756;2022-12-29T21:00:08;4.07;;;1.30;;
69053;SDS011;56125;52.242;4.756;2022-12-29T21:05:10;6.90;;;1.67;;
69053;SDS011;56125;52.242;4.756;2022-12-29T21:10:12;8.93;;;1.50;;
69053;SDS011;56125;52.242;4.756;2022-12-29T21:15:13;4.85;;;1.70;;
69053;SDS011;56125;52.242;4.756;2022-12-29T21:20:15;5.53;;;1.50;;
69053;SDS011;56125;52.242;4.756;2022-12-29T21:25:29;5.10;;;2.00;;
69053;SDS011;56125;52.242;4.756;2022-12-29T21:30:36;5.43;;;1.50;;
69053;SDS011;56125;52.242;4.756;2022-12-29T21:35:38;7.93;;;1.88;;
69053;SDS011;56125;52.242;4.756;2022-12-29T21:40:39;6.63;;;1.60;;
69053;SDS011;56125;52.242;4.756;2022-12-29T21:45:40;5.30;;;1.70;;
69053;SDS011;56125;52.242;4.756;2022-12-29T21:50:42;6.53;;;1.50;;
69053;SDS011;56125;52.242;4.756;2022-12-29T21:56:05;5.97;;;1.48;;
69053;SDS011;56125;52.242;4.756;2022-12-29T22:01:17;4.63;;;1.47;;
69053;SDS011;56125;52.242;4.756;2022-12-29T22:06:37;5.03;;;1.90;;
69053;SDS011;56125;52.242;4.756;2022-12-29T22:11:56;10.00;;;2.03;;
69053;SDS011;56125;52.242;4.756;2022-12-29T22:17:15;5.00;;;1.50;;
69053;SDS011;56125;52.242;4.756;2022-12-29T22:22:16;3.60;;;1.23;;
69053;SDS011;56125;52.242;4.756;2022-12-29T22:27:17;6.07;;;1.58;;
69053;SDS011;56125;52.242;4.756;2022-12-29T22:32:18;4.23;;;1.53;;
69053;SDS011;56125;52.242;4.756;2022-12-29T22:37:20;7.35;;;2.35;;
69053;SDS011;56125;52.242;4.756;2022-12-29T22:42:21;5.87;;;2.00;;
69053;SDS011;56125;52.242;4.756;2022-12-29T22:47:22;6.88;;;1.48;;
69053;SDS011;56125;52.242;4.756;2022-12-29T22:52:23;3.83;;;1.63;;
69053;SDS011;56125;52.242;4.756;2022-12-29T22:57:24;5.18;;;1.50;;
69053;SDS011;56125;52.242;4.756;2022-12-29T23:02:25;4.67;;;1.47;;
69053;SDS011;56125;52.242;4.756;2022-12-29T23:07:26;7.38;;;1.70;;
69053;SDS011;56125;52.242;4.756;2022-12-29T23:12:28;6.03;;;1.60;;
69053;SDS011;56125;52.242;4.756;2022-12-29T23:17:30;4.22;;;1.95;;
69053;SDS011;56125;52.242;4.756;2022-12-29T23:22:31;6.93;;;1.60;;
69053;SDS011;56125;52.242;4.756;2022-12-29T23:27:32;5.03;;;1.42;;
69053;SDS011;56125;52.242;4.756;2022-12-29T23:32:33;4.83;;;1.60;;
69053;SDS011;56125;52.242;4.756;2022-12-29T23:37:34;4.28;;;1.50;;
69053;SDS011;56125;52.242;4.756;2022-12-29T23:42:35;6.17;;;1.60;;
69053;SDS011;56125;52.242;4.756;2022-12-29T23:47:36;5.07;;;1.65;;
69053;SDS011;56125;52.242;4.756;2022-12-29T23:52:37;4.77;;;1.30;;
69053;SDS011;56125;52.242;4.756;2022-12-29T23:57:38;6.75;;;1.50;;
